Time;durP1;ratioP1;P1;durP2;ratioP2;P2;SDS_P1;SDS_P2;PMS_P1;PMS_P2;Temp;Humidity;BMP_temperature;BMP_pressure;BME280_temperature;BME280_humidity;BME280_pressure;Samples;Min_cycle;Max_cycle;Signal;HPM_P1;HPM_P2
2023/10/21 06:24:14;;;;;;;957.13;852.83;;;;;;;;;;6018788;23;20016;-96
2023/10/21 06:26:50;;;;;;;993.97;873.80;;;;;;;;;;6013598;23;20083;-96
2023/10/21 06:29:23;;;;;;;896.97;806.00;;;;;;;;;;6008382;23;20008;-96
2023/10/21 06:32:08;;;;;;;907.63;814.53;;;;;;;;;;6075611;23;20009;-95
2023/10/21 06:34:35;;;;;;;951.38;842.65;;;;;;;;;;6157843;23;20000;-96
2023/10/21 06:37:01;;;;;;;960.47;857.28;;;;;;;;;;6224011;23;20012;-95
2023/10/21 06:39:47;;;;;;;;;;;;;;;;;;;;;
2023/10/21 06:42:14;;;;;;;935.40;835.95;;;;;;;;;;6233279;23;20035;-96
2023/10/21 06:48:18;;;;;;;;;;;;;;;;;;;;;
2023/10/21 06:51:06;;;;;;;851.63;770.22;;;;;;;;;;6256503;23;20023;-96
2023/10/21 07:45:58;;;;;;;191.82;180.27;;;;;;;;;;6199610;23;20020;-96
2023/10/21 08:27:14;;;;;;;431.90;396.75;;;;;;;;;;6052800;23;20022;-96
2023/10/21 08:29:42;;;;;;;417.58;385.63;;;;;;;;;;6066367;23;20066;-96
2023/10/21 10:37:06;;;;;;;274.63;255.88;;;;;;;;;;6237128;22;19950;-94
2023/10/21 10:39:42;;;;;;;365.95;337.67;;;;;;;;;;6226166;23;20075;-94
2023/10/21 10:42:29;;;;;;;498.58;456.00;;;;;;;;;;6222444;23;20004;-96
2023/10/21 10:45:03;;;;;;;693.42;631.33;;;;;;;;;;6205255;23;20004;-94
2023/10/21 10:47:32;;;;;;;687.45;623.42;;;;;;;;;;6223571;23;20443;-94
2023/10/21 10:49:59;;;;;;;284.40;263.73;;;;;;;;;;6222663;23;20083;-92
2023/10/21 10:52:38;;;;;;;668.97;607.58;;;;;;;;;;6224070;23;20336;-95
2023/10/21 10:55:26;;;;;;;670.67;609.03;;;;;;;;;;6224439;23;20016;-94
2023/10/21 10:57:58;;;;;;;727.00;658.30;;;;;;;;;;6225244;23;20004;-93
2023/10/21 11:03:40;;;;;;;797.45;712.88;;;;;;;;;;6211831;23;20039;-93
2023/10/21 11:06:12;;;;;;;792.30;715.47;;;;;;;;;;6225162;23;20062;-96
2023/10/21 11:11:50;;;;;;;666.10;605.13;;;;;;;;;;6253470;23;20533;-93
2023/10/21 11:14:21;;;;;;;286.50;266.20;;;;;;;;;;6228173;23;20016;-94
2023/10/21 11:17:14;;;;;;;221.00;206.77;;;;;;;;;;6232716;23;20008;-96
2023/10/21 11:31:38;;;;;;;721.58;652.78;;;;;;;;;;6218889;23;20092;-93
2023/10/21 11:34:12;;;;;;;;;;;;;;;;;;6218004;23;20536;-94
2023/10/21 11:36:48;;;;;;;741.35;673.17;;;;;;;;;;6218006;23;20301;-92
2023/10/21 11:39:25;;;;;;;708.17;644.88;;;;;;;;;;6217619;23;20036;-94
2023/10/21 11:41:59;;;;;;;653.08;596.88;;;;;;;;;;6215954;23;20028;-93
2023/10/21 11:44:31;;;;;;;661.75;604.40;;;;;;;;;;6216581;23;20009;-93
2023/10/21 11:47:11;;;;;;;723.42;657.88;;;;;;;;;;6217825;23;20028;-92
2023/10/21 11:49:44;;;;;;;696.67;634.78;;;;;;;;;;6217038;23;20016;-95
2023/10/21 11:52:42;;;;;;;695.55;633.33;;;;;;;;;;6215563;23;20005;-92
2023/10/21 12:15:17;;;;;;;810.75;732.17;;;;;;;;;;6218334;23;20032;-92
2023/10/21 12:30:18;;;;;;;775.88;703.60;;;;;;;;;;6214234;23;20084;-92
2023/10/21 12:32:52;;;;;;;687.22;629.03;;;;;;;;;;6244353;23;20064;-92
2023/10/21 12:38:38;;;;;;;718.92;654.78;;;;;;;;;;6257761;23;20008;-92
2023/10/21 12:41:37;;;;;;;736.45;674.53;;;;;;;;;;6221733;23;20043;-94
2023/10/21 12:44:13;;;;;;;666.63;611.75;;;;;;;;;;6222000;23;20333;-94
2023/10/21 12:46:47;;;;;;;710.13;651.88;;;;;;;;;;6222968;23;20004;-94
2023/10/21 12:49:21;;;;;;;761.08;695.65;;;;;;;;;;6223974;23;20030;-94
2023/10/21 12:51:54;;;;;;;783.70;711.03;;;;;;;;;;6223823;23;20011;-93
2023/10/21 12:54:20;;;;;;;;;;;;;;;;;;6221896;23;20012;-93
2023/10/21 12:56:51;;;;;;;811.30;736.75;;;;;;;;;;6220805;23;19925;-92
2023/10/21 12:59:19;;;;;;;783.65;711.38;;;;;;;;;;6220085;23;20007;-93
2023/10/21 13:01:51;;;;;;;760.17;690.00;;;;;;;;;;6219853;23;20011;-94
2023/10/21 13:04:18;;;;;;;894.63;782.65;;;;;;;;;;6221554;23;20034;-94
2023/10/21 13:06:48;;;;;;;712.53;650.00;;;;;;;;;;6221413;23;20005;-94
2023/10/21 13:09:29;;;;;;;775.78;694.03;;;;;;;;;;6221672;23;20015;-94
2023/10/21 13:11:55;;;;;;;755.70;688.75;;;;;;;;;;6221776;23;20302;-94
2023/10/21 13:15:13;;;;;;;676.17;619.80;;;;;;;;;;6221350;23;20040;-96
2023/10/21 13:17:41;;;;;;;699.35;639.42;;;;;;;;;;6211972;22;20036;-94
2023/10/21 13:20:16;;;;;;;773.08;695.95;;;;;;;;;;6228441;23;20059;-95
2023/10/21 13:23:01;;;;;;;752.53;687.65;;;;;;;;;;6186904;23;20005;-95
2023/10/21 13:28:39;;;;;;;898.78;803.25;;;;;;;;;;6233770;22;20043;-96
2023/10/21 13:31:21;;;;;;;885.97;793.60;;;;;;;;;;6232156;22;20022;-95
2023/10/21 13:39:00;;;;;;;870.17;783.33;;;;;;;;;;6254758;22;20028;-96
2023/10/21 14:14:32;;;;;;;855.13;770.38;;;;;;;;;;6256461;22;19916;-95
2023/10/21 14:17:06;;;;;;;807.80;731.85;;;;;;;;;;6193138;23;20015;-96
2023/10/21 14:43:56;;;;;;;873.10;789.08;;;;;;;;;;6236108;22;20016;-93
2023/10/21 14:46:42;;;;;;;909.25;813.15;;;;;;;;;;6170152;23;20052;-90
2023/10/21 14:49:10;;;;;;;869.30;788.20;;;;;;;;;;6162660;23;20016;-90
2023/10/21 14:57:15;;;;;;;856.85;778.67;;;;;;;;;;6242165;22;20408;-92
2023/10/21 15:00:00;;;;;;;863.10;783.17;;;;;;;;;;6246478;23;20032;-94
2023/10/21 15:02:29;;;;;;;887.85;801.28;;;;;;;;;;6221912;23;20007;-94
2023/10/21 15:05:03;;;;;;;887.40;799.13;;;;;;;;;;6222415;23;20011;-96
2023/10/21 15:10:42;;;;;;;931.20;836.07;;;;;;;;;;6186433;23;20016;-95
2023/10/21 15:13:22;;;;;;;988.33;842.45;;;;;;;;;;6161680;23;20076;-94
2023/10/21 15:15:49;;;;;;;855.08;775.15;;;;;;;;;;6158187;23;20005;-92
2023/10/21 15:18:15;;;;;;;848.00;768.72;;;;;;;;;;6162776;23;20016;-92
2023/10/21 15:20:45;;;;;;;894.97;806.65;;;;;;;;;;6174741;23;20008;-92
2023/10/21 15:23:15;;;;;;;883.10;801.13;;;;;;;;;;6187494;23;20008;-92
2023/10/21 15:25:58;;;;;;;876.78;792.80;;;;;;;;;;6187764;23;20191;-94
2023/10/21 15:28:47;;;;;;;839.97;761.00;;;;;;;;;;6160961;23;20020;-96
2023/10/21 15:31:13;;;;;;;851.40;767.58;;;;;;;;;;6160724;23;20040;-92
2023/10/21 15:33:57;;;;;;;892.45;801.97;;;;;;;;;;6161269;23;20402;-91
2023/10/21 15:36:26;;;;;;;878.67;792.28;;;;;;;;;;6163555;23;20060;-93
2023/10/21 15:44:38;;;;;;;850.45;770.17;;;;;;;;;;6222769;22;20027;-92
2023/10/21 15:47:05;;;;;;;933.03;836.30;;;;;;;;;;6283420;22;20020;-93
2023/10/21 15:50:00;;;;;;;958.30;854.03;;;;;;;;;;6257628;23;20329;-90
2023/10/21 15:56:13;;;;;;;961.85;855.67;;;;;;;;;;6257236;23;20031;-93
2023/10/21 16:13:56;;;;;;;914.70;817.38;;;;;;;;;;6290233;22;20062;-96
2023/10/21 16:22:01;;;;;;;1151.65;908.92;;;;;;;;;;6249585;23;20016;-94
2023/10/21 16:24:36;;;;;;;1132.30;880.15;;;;;;;;;;6247231;23;19985;-92
2023/10/21 16:29:50;;;;;;;947.95;843.97;;;;;;;;;;6241407;22;20022;-91
2023/10/21 16:38:17;;;;;;;1236.60;922.42;;;;;;;;;;6251924;23;20018;-93
2023/10/21 16:49:19;;;;;;;1154.13;896.10;;;;;;;;;;6245125;22;20123;-94
2023/10/21 17:16:45;;;;;;;1069.18;863.58;;;;;;;;;;6068524;23;20070;-94
2023/10/21 17:19:11;;;;;;;1066.03;891.10;;;;;;;;;;6052058;23;20471;-94
2023/10/21 17:21:37;;;;;;;985.78;841.53;;;;;;;;;;6055831;23;20042;-94
2023/10/21 17:24:04;;;;;;;1018.90;864.53;;;;;;;;;;6048208;23;20007;-95
2023/10/21 17:26:36;;;;;;;1115.13;896.15;;;;;;;;;;6078106;23;20322;-92
2023/10/21 17:29:08;;;;;;;1150.25;902.28;;;;;;;;;;6190995;23;20330;-94
2023/10/21 17:31:34;;;;;;;1178.10;914.08;;;;;;;;;;6191981;23;20005;-93
2023/10/21 17:34:01;;;;;;;1133.70;918.50;;;;;;;;;;6189467;23;20697;-93
2023/10/21 17:36:42;;;;;;;1013.78;883.80;;;;;;;;;;6184274;23;20007;-92
2023/10/21 17:39:14;;;;;;;977.60;859.47;;;;;;;;;;6172047;23;20010;-95
2023/10/21 17:41:46;;;;;;;937.72;835.17;;;;;;;;;;6194097;23;20001;-94
2023/10/21 17:44:15;;;;;;;1095.97;903.10;;;;;;;;;;6192901;23;20083;-93
2023/10/21 17:50:15;;;;;;;1066.38;886.63;;;;;;;;;;6219730;23;20015;-93
2023/10/21 17:52:45;;;;;;;983.53;864.95;;;;;;;;;;6209259;23;20437;-96
2023/10/21 17:55:20;;;;;;;953.28;848.03;;;;;;;;;;6221875;23;20000;-91
2023/10/21 17:57:50;;;;;;;1120.68;902.65;;;;;;;;;;6179813;23;20004;-93
2023/10/21 18:00:22;;;;;;;1075.15;883.75;;;;;;;;;;6177909;23;20005;-96
2023/10/21 18:03:00;;;;;;;1118.57;904.85;;;;;;;;;;6195501;23;20444;-94
2023/10/21 18:05:51;;;;;;;965.25;858.38;;;;;;;;;;6198315;23;20005;-96
2023/10/21 18:08:27;;;;;;;985.33;854.58;;;;;;;;;;6195588;23;20369;-96
2023/10/21 18:10:56;;;;;;;1120.22;905.42;;;;;;;;;;6193852;23;20036;-94
2023/10/21 18:13:22;;;;;;;971.55;864.42;;;;;;;;;;6162404;23;20108;-93
2023/10/21 18:15:57;;;;;;;1139.07;906.50;;;;;;;;;;6162860;23;20025;-94
2023/10/21 18:18:23;;;;;;;1002.35;879.05;;;;;;;;;;6162854;23;20009;-94
2023/10/21 18:20:56;;;;;;;970.20;860.35;;;;;;;;;;6161392;23;20001;-94
2023/10/21 18:23:31;;;;;;;1022.05;883.22;;;;;;;;;;6161222;23;20050;-94
2023/10/21 18:26:15;;;;;;;1039.15;869.90;;;;;;;;;;6161678;23;20005;-96
2023/10/21 18:28:47;;;;;;;952.80;847.58;;;;;;;;;;6162126;23;20013;-96
2023/10/21 18:31:21;;;;;;;1172.88;914.33;;;;;;;;;;6161605;23;20059;-94
2023/10/21 18:36:51;;;;;;;1126.68;921.45;;;;;;;;;;6130760;23;20450;-93
2023/10/21 18:39:23;;;;;;;935.92;833.63;;;;;;;;;;6103615;23;20006;-95
2023/10/21 18:44:44;;;;;;;998.00;870.75;;;;;;;;;;6128557;23;20084;-94
2023/10/21 18:47:13;;;;;;;949.58;842.47;;;;;;;;;;6103494;23;20317;-94
2023/10/21 18:49:46;;;;;;;1113.75;890.85;;;;;;;;;;6103483;23;20453;-95
2023/10/21 18:52:25;;;;;;;;;;;;;;;;;;6104534;23;20101;-95
2023/10/21 18:55:10;;;;;;;1072.47;886.90;;;;;;;;;;6157208;23;19913;-93
2023/10/21 18:57:42;;;;;;;1116.75;893.63;;;;;;;;;;6109286;23;20080;-95
2023/10/21 19:09:21;;;;;;;1018.07;870.40;;;;;;;;;;6139901;23;20020;-94
2023/10/21 19:11:49;;;;;;;1038.90;874.08;;;;;;;;;;6153534;23;20031;-95
2023/10/21 19:17:12;;;;;;;1069.68;889.95;;;;;;;;;;6159345;23;20016;-95
2023/10/21 19:19:42;;;;;;;1099.95;888.67;;;;;;;;;;6136697;23;20010;-95
2023/10/21 19:22:27;;;;;;;1055.93;894.63;;;;;;;;;;6105737;23;20118;-94
2023/10/21 19:25:03;;;;;;;1131.22;909.20;;;;;;;;;;6104888;23;20009;-94
2023/10/21 19:27:32;;;;;;;1151.78;908.53;;;;;;;;;;6108905;23;20022;-93
2023/10/21 19:30:05;;;;;;;1022.85;883.55;;;;;;;;;;6108938;23;20013;-93
2023/10/21 19:32:40;;;;;;;1120.77;916.37;;;;;;;;;;6114886;23;20014;-93
2023/10/21 19:38:08;;;;;;;1119.00;906.63;;;;;;;;;;6129154;23;20451;-95
2023/10/21 19:40:40;;;;;;;1037.93;888.45;;;;;;;;;;6104980;23;20321;-94
2023/10/21 19:43:09;;;;;;;1064.95;892.60;;;;;;;;;;6112931;23;20010;-93
2023/10/21 19:45:47;;;;;;;1010.00;875.10;;;;;;;;;;6111083;23;20005;-94
2023/10/21 19:50:55;;;;;;;1081.00;886.95;;;;;;;;;;6218832;22;20036;-94
2023/10/21 19:53:21;;;;;;;983.00;865.40;;;;;;;;;;6206470;23;20020;-93
2023/10/21 19:55:58;;;;;;;1061.63;891.10;;;;;;;;;;6195521;23;20467;-93
2023/10/21 20:04:16;;;;;;;1050.03;891.38;;;;;;;;;;6251632;22;20103;-95
2023/10/21 20:06:45;;;;;;;1084.15;881.70;;;;;;;;;;6226881;23;20012;-95
2023/10/21 20:09:17;;;;;;;1087.35;891.33;;;;;;;;;;6228638;23;20425;-95
2023/10/21 20:11:58;;;;;;;995.15;865.13;;;;;;;;;;6226600;23;20376;-95
2023/10/21 20:14:24;;;;;;;1099.35;919.95;;;;;;;;;;6225688;23;20020;-94
2023/10/21 20:19:44;;;;;;;1099.40;903.35;;;;;;;;;;6272078;23;20031;-94
2023/10/21 20:22:19;;;;;;;1074.40;894.13;;;;;;;;;;6239852;23;20439;-95
2023/10/21 20:25:00;;;;;;;1312.63;945.92;;;;;;;;;;6225244;23;20524;-94
2023/10/21 20:33:07;;;;;;;1107.10;898.85;;;;;;;;;;6264729;22;20007;-91
2023/10/21 20:35:58;;;;;;;1106.88;909.85;;;;;;;;;;6221302;23;20021;-94
2023/10/21 20:41:21;;;;;;;1140.40;909.03;;;;;;;;;;6223474;23;20027;-95
2023/10/21 20:43:54;;;;;;;1162.90;918.33;;;;;;;;;;6222731;23;20004;-94
2023/10/21 20:46:21;;;;;;;1278.78;941.67;;;;;;;;;;6221159;23;20008;-95
2023/10/21 20:49:17;;;;;;;1012.00;880.60;;;;;;;;;;6177463;23;20071;-96
2023/10/21 20:51:47;;;;;;;1091.20;890.72;;;;;;;;;;6179453;23;20031;-95
2023/10/21 20:54:17;;;;;;;1144.55;897.97;;;;;;;;;;6188777;23;20021;-95
2023/10/21 21:00:12;;;;;;;1165.05;907.75;;;;;;;;;;6190952;23;20504;-94
2023/10/21 21:02:43;;;;;;;1194.72;922.58;;;;;;;;;;6192357;23;20064;-94
2023/10/21 21:08:50;;;;;;;1232.03;932.25;;;;;;;;;;6196417;23;20067;-95
2023/10/21 21:14:26;;;;;;;1146.93;908.05;;;;;;;;;;5211371;27;20413;-95
2023/10/21 21:17:08;;;;;;;1228.55;945.10;;;;;;;;;;5166898;27;20026;-95
2023/10/21 21:19:48;;;;;;;1344.38;964.88;;;;;;;;;;5124286;28;20054;-96
2023/10/21 21:28:02;;;;;;;1211.85;928.55;;;;;;;;;;5248586;22;20061;-93
2023/10/21 22:06:43;;;;;;;1235.18;933.13;;;;;;;;;;5320624;22;20041;-95
2023/10/21 22:15:19;;;;;;;1419.25;975.22;;;;;;;;;;5127529;22;20098;-94
2023/10/21 22:17:52;;;;;;;1427.65;972.58;;;;;;;;;;5097196;28;20064;-95
2023/10/21 22:23:02;;;;;;;1565.18;999.90;;;;;;;;;;5134758;22;19911;-95
2023/10/21 22:25:42;;;;;;;1411.82;981.80;;;;;;;;;;5072244;28;20028;-96
2023/10/21 22:34:12;;;;;;;1362.57;978.42;;;;;;;;;;5077725;28;20117;-95
2023/10/21 22:36:38;;;;;;;1438.55;997.00;;;;;;;;;;5075146;28;20039;-95
2023/10/21 22:39:09;;;;;;;1514.60;988.67;;;;;;;;;;5080616;28;20028;-96
2023/10/21 22:41:46;;;;;;;1381.15;976.35;;;;;;;;;;5066565;28;20036;-95
2023/10/21 22:44:15;;;;;;;1410.38;987.90;;;;;;;;;;5046725;28;20028;-96
2023/10/21 22:46:42;;;;;;;1397.00;987.70;;;;;;;;;;5060764;28;20477;-95
2023/10/21 22:49:11;;;;;;;1639.32;999.90;;;;;;;;;;5087787;28;20028;-94
2023/10/21 22:51:49;;;;;;;1456.72;990.25;;;;;;;;;;5093433;28;20032;-95
2023/10/21 22:54:19;;;;;;;1526.60;996.88;;;;;;;;;;5543339;22;20055;-95
2023/10/21 23:05:46;;;;;;;1739.72;999.90;;;;;;;;;;6087205;22;20025;-95
2023/10/21 23:10:57;;;;;;;1340.30;963.33;;;;;;;;;;5664737;22;20045;-95
2023/10/21 23:13:29;;;;;;;1380.28;986.97;;;;;;;;;;5492485;23;20376;-95
2023/10/21 23:15:58;;;;;;;1234.95;950.10;;;;;;;;;;5337305;22;20038;-96
2023/10/21 23:21:05;;;;;;;1372.95;980.25;;;;;;;;;;5529233;22;20149;-95
2023/10/21 23:31:21;;;;;;;1236.65;946.65;;;;;;;;;;5658225;23;20136;-95
2023/10/21 23:36:29;;;;;;;1370.70;976.38;;;;;;;;;;5511785;22;20054;-95
2023/10/21 23:38:58;;;;;;;1327.03;972.90;;;;;;;;;;5453024;23;20961;-95
2023/10/21 23:41:28;;;;;;;1330.30;959.30;;;;;;;;;;5219795;23;20434;-96
2023/10/21 23:46:31;;;;;;;1268.00;963.40;;;;;;;;;;5463955;23;20509;-96
2023/10/21 23:49:06;;;;;;;1400.95;985.92;;;;;;;;;;5532214;23;20028;-96
2023/10/21 23:51:35;;;;;;;1382.55;985.00;;;;;;;;;;5487110;23;20401;-96
2023/10/21 23:54:10;;;;;;;1390.78;988.78;;;;;;;;;;5139537;23;20046;-96
